createdAt,value
2022-08-25T00:01:44.076Z,21.08
2022-08-25T00:06:46.691Z,21.05
2022-08-25T00:11:46.607Z,21.03
2022-08-25T00:16:45.678Z,21.01
2022-08-25T00:21:44.701Z,21.01
2022-08-25T00:26:47.549Z,21.02
2022-08-25T00:31:47.884Z,21.05
2022-08-25T00:36:51.886Z,21.06
2022-08-25T00:41:54.160Z,21.09
2022-08-25T00:46:58.746Z,21.11
2022-08-25T00:52:04.565Z,21.13
2022-08-25T00:57:05.769Z,21.16
2022-08-25T01:02:06.229Z,21.17
2022-08-25T01:07:13.818Z,21.20
2022-08-25T01:12:16.816Z,21.22
2022-08-25T01:17:16.199Z,21.24
2022-08-25T01:22:14.965Z,21.27
2022-08-25T01:27:14.434Z,21.28
2022-08-25T01:32:16.683Z,21.29
2022-08-25T01:37:19.392Z,21.30
2022-08-25T01:42:44.900Z,21.34
2022-08-25T01:47:44.213Z,21.40
2022-08-25T01:52:57.059Z,21.46
2022-08-25T01:57:56.483Z,21.53
2022-08-25T02:02:55.793Z,21.60
2022-08-25T02:07:54.794Z,21.68
2022-08-25T02:12:54.429Z,21.77
2022-08-25T02:17:53.075Z,21.85
2022-08-25T02:22:56.974Z,21.91
2022-08-25T02:27:55.916Z,21.94
2022-08-25T02:32:54.709Z,21.95
2022-08-25T02:37:55.548Z,21.96
2022-08-25T02:42:55.714Z,21.97
2022-08-25T02:47:55.010Z,21.98
2022-08-25T02:52:53.332Z,21.98
2022-08-25T02:57:52.546Z,21.98
2022-08-25T03:02:51.191Z,21.96
2022-08-25T03:07:50.559Z,21.93
2022-08-25T03:12:52.976Z,21.88
2022-08-25T03:17:55.400Z,21.82
2022-08-25T03:22:54.937Z,21.77
2022-08-25T03:27:53.419Z,21.71
2022-08-25T03:32:52.776Z,21.67
2022-08-25T03:37:52.118Z,21.60
2022-08-25T03:42:51.235Z,21.55
2022-08-25T03:47:53.155Z,21.51
2022-08-25T03:52:57.697Z,21.48
2022-08-25T03:57:57.676Z,21.46
2022-08-25T04:02:56.488Z,21.46
2022-08-25T04:07:56.086Z,21.46
2022-08-25T04:12:56.191Z,21.45
2022-08-25T04:17:55.155Z,21.44
2022-08-25T04:22:54.008Z,21.45
2022-08-25T04:27:52.820Z,21.47
2022-08-25T04:32:51.768Z,21.52
2022-08-25T04:37:51.178Z,21.56
2022-08-25T04:42:49.896Z,21.61
2022-08-25T04:47:54.338Z,21.67
2022-08-25T04:52:54.155Z,21.75
2022-08-25T04:57:52.508Z,21.83
2022-08-25T05:02:51.093Z,21.91
2022-08-25T05:07:49.740Z,22.00
2022-08-25T05:12:48.854Z,22.09
2022-08-25T05:17:47.610Z,22.18
2022-08-25T05:22:49.081Z,22.28
2022-08-25T05:27:48.615Z,22.41
2022-08-25T05:32:47.727Z,22.53
2022-08-25T05:37:46.164Z,22.59
2022-08-25T05:42:45.408Z,22.72
2022-08-25T05:47:44.396Z,22.86
2022-08-25T05:52:42.970Z,23.00
2022-08-25T05:57:42.066Z,23.11
2022-08-25T06:02:44.346Z,23.24
2022-08-25T06:07:44.256Z,23.35
2022-08-25T06:12:45.513Z,23.45
2022-08-25T06:17:45.103Z,23.50
2022-08-25T06:22:44.225Z,23.59
2022-08-25T06:27:44.482Z,23.71
2022-08-25T06:32:47.369Z,23.87
2022-08-25T06:37:45.864Z,24.07
2022-08-25T06:42:44.645Z,24.32
2022-08-25T06:47:47.161Z,24.62
2022-08-25T06:52:46.485Z,24.94
2022-08-25T06:57:47.381Z,25.26
2022-08-25T07:02:47.513Z,25.60
2022-08-25T07:07:46.722Z,25.94
2022-08-25T07:12:45.291Z,26.25
2022-08-25T07:17:43.831Z,26.56
2022-08-25T07:22:42.684Z,26.92
2022-08-25T07:27:42.250Z,27.34
2022-08-25T07:32:42.004Z,27.75
2022-08-25T07:37:49.336Z,28.14
2022-08-25T07:42:49.626Z,28.46
2022-08-25T07:47:48.449Z,28.73
2022-08-25T07:52:55.178Z,29.04
2022-08-25T07:57:57.123Z,29.28
2022-08-25T08:02:56.259Z,29.46
2022-08-25T08:07:55.969Z,29.64
2022-08-25T08:12:55.228Z,29.76
2022-08-25T08:17:55.085Z,29.86
2022-08-25T08:22:55.234Z,29.92
2022-08-25T08:27:57.957Z,29.90
2022-08-25T08:33:11.455Z,29.89
2022-08-25T08:38:17.264Z,29.94
2022-08-25T08:43:24.994Z,30.02
2022-08-25T08:49:00.249Z,30.09
2022-08-25T08:54:15.458Z,30.20
2022-08-25T08:59:20.993Z,30.30
2022-08-25T09:04:28.085Z,30.43
2022-08-25T09:09:36.045Z,30.54
2022-08-25T09:15:02.479Z,30.67
2022-08-25T09:20:35.089Z,30.89
2022-08-25T09:25:52.989Z,31.14
2022-08-25T09:31:00.434Z,31.27
2022-08-25T09:36:04.654Z,31.33
2022-08-25T09:41:06.677Z,31.57
2022-08-25T09:46:14.544Z,31.85
2022-08-25T09:51:26.261Z,32.25
2022-08-25T09:56:31.382Z,32.70
2022-08-25T10:01:34.620Z,33.23
2022-08-25T10:06:45.936Z,33.74
2022-08-25T10:11:49.541Z,34.23
2022-08-25T10:16:50.544Z,34.65
2022-08-25T10:22:06.390Z,35.01
2022-08-25T10:27:23.356Z,35.39
2022-08-25T10:32:34.037Z,35.77
2022-08-25T10:37:46.718Z,36.06
2022-08-25T10:43:07.887Z,36.30
2022-08-25T10:48:32.018Z,36.56
2022-08-25T10:53:49.916Z,36.89
2022-08-25T10:59:41.257Z,37.08
2022-08-25T11:04:48.748Z,37.34
2022-08-25T11:09:52.136Z,37.57
2022-08-25T11:14:58.209Z,37.76
2022-08-25T11:20:05.727Z,38.00
2022-08-25T11:25:16.429Z,38.12
2022-08-25T11:30:20.268Z,38.23
2022-08-25T11:35:29.779Z,38.40
2022-08-25T11:41:16.822Z,38.63
2022-08-25T11:46:36.253Z,38.98
2022-08-25T11:51:43.358Z,39.39
2022-08-25T11:56:44.738Z,39.73
2022-08-25T12:02:08.068Z,40.06
2022-08-25T12:08:22.139Z,40.47
2022-08-25T12:13:45.678Z,40.72
2022-08-25T12:18:51.539Z,40.96
2022-08-25T12:24:26.743Z,41.13
2022-08-25T12:29:41.780Z,41.27
2022-08-25T12:35:26.928Z,41.29
2022-08-25T12:40:48.544Z,41.36
2022-08-25T12:45:52.173Z,41.60
2022-08-25T12:51:01.536Z,41.91
2022-08-25T12:56:07.598Z,42.29
2022-08-25T13:01:35.759Z,42.61
2022-08-25T13:06:59.215Z,42.96
2022-08-25T13:12:10.954Z,43.63
2022-08-25T13:17:11.027Z,44.35
2022-08-25T13:22:18.805Z,45.10
2022-08-25T13:27:29.342Z,45.83
2022-08-25T13:32:39.615Z,46.35
2022-08-25T13:37:39.957Z,46.73
2022-08-25T13:42:42.430Z,46.89
2022-08-25T13:47:47.370Z,47.12
2022-08-25T13:52:51.176Z,47.26
2022-08-25T13:57:51.345Z,47.26
2022-08-25T14:02:54.156Z,47.17
2022-08-25T14:08:15.777Z,46.89
2022-08-25T14:13:33.721Z,46.32
2022-08-25T14:18:36.182Z,45.80
2022-08-25T14:23:40.802Z,45.36
2022-08-25T14:28:40.783Z,45.16
2022-08-25T14:33:44.884Z,45.13
2022-08-25T14:38:54.630Z,44.93
2022-08-25T14:43:54.533Z,44.49
2022-08-25T14:48:59.842Z,44.03
2022-08-25T14:54:04.021Z,43.38
2022-08-25T14:59:03.483Z,42.75
2022-08-25T15:04:11.764Z,42.39
2022-08-25T15:09:13.773Z,42.00
2022-08-25T15:14:15.661Z,41.63
2022-08-25T15:19:18.820Z,41.30
2022-08-25T15:24:20.707Z,40.92
2022-08-25T15:29:19.122Z,40.65
2022-08-25T15:34:19.550Z,40.44
2022-08-25T15:39:19.021Z,40.20
2022-08-25T15:44:18.424Z,40.07
2022-08-25T15:49:20.404Z,39.93
2022-08-25T15:54:22.583Z,39.92
2022-08-25T15:59:21.888Z,39.96
2022-08-25T16:04:20.961Z,39.94
2022-08-25T16:09:22.907Z,39.91
2022-08-25T16:14:21.665Z,39.90
2022-08-25T16:19:20.438Z,39.92
2022-08-25T16:24:19.687Z,39.77
2022-08-25T16:29:19.860Z,39.54
2022-08-25T16:34:19.564Z,39.21
2022-08-25T16:39:18.649Z,38.83
2022-08-25T16:44:18.231Z,38.39
2022-08-25T16:49:22.011Z,37.90
2022-08-25T16:54:41.480Z,37.38
2022-08-25T16:59:40.571Z,36.75
2022-08-25T17:04:40.790Z,36.01
2022-08-25T17:09:39.974Z,35.21
2022-08-25T17:14:38.854Z,34.50
2022-08-25T17:19:37.960Z,33.83
2022-08-25T17:24:37.572Z,33.17
2022-08-25T17:29:40.966Z,32.49
2022-08-25T17:34:41.266Z,31.83
2022-08-25T17:39:40.734Z,31.19
2022-08-25T17:44:39.553Z,30.62
2022-08-25T17:49:38.512Z,30.09
2022-08-25T17:54:37.800Z,29.66
2022-08-25T17:59:38.889Z,29.26
2022-08-25T18:04:40.582Z,28.87
2022-08-25T18:09:39.538Z,28.47
2022-08-25T18:14:39.038Z,28.14
2022-08-25T18:19:40.292Z,27.87
2022-08-25T18:24:39.176Z,27.62
2022-08-25T18:29:40.962Z,27.42
2022-08-25T18:34:40.850Z,27.22
2022-08-25T18:39:57.385Z,27.03
2022-08-25T18:45:00.683Z,26.86
2022-08-25T18:50:04.525Z,26.70
2022-08-25T18:55:03.514Z,26.55
2022-08-25T19:00:04.045Z,26.41
2022-08-25T19:05:07.353Z,26.26
2022-08-25T19:10:08.332Z,26.09
2022-08-25T19:15:12.638Z,25.93
2022-08-25T19:20:14.176Z,25.75
2022-08-25T19:25:14.881Z,25.61
2022-08-25T19:30:18.875Z,25.46
2022-08-25T19:35:30.784Z,25.32
2022-08-25T19:40:33.509Z,25.16
2022-08-25T19:45:33.744Z,25.01
2022-08-25T19:50:33.018Z,24.86
2022-08-25T19:55:32.333Z,24.73
2022-08-25T20:00:37.234Z,24.60
2022-08-25T20:05:37.652Z,24.48
2022-08-25T20:10:42.076Z,24.35
2022-08-25T20:15:42.462Z,24.23
2022-08-25T20:20:41.269Z,24.13
2022-08-25T20:25:40.502Z,24.02
2022-08-25T20:30:40.159Z,23.92
2022-08-25T20:35:40.737Z,23.80
2022-08-25T20:40:43.454Z,23.70
2022-08-25T20:45:42.839Z,23.58
2022-08-25T20:50:44.155Z,23.46
2022-08-25T20:55:47.848Z,23.35
2022-08-25T21:00:48.352Z,23.24
2022-08-25T21:05:53.591Z,23.14
2022-08-25T21:10:53.552Z,23.03
2022-08-25T21:15:52.516Z,22.92
2022-08-25T21:20:53.793Z,22.81
2022-08-25T21:25:54.577Z,22.71
2022-08-25T21:30:54.427Z,22.59
2022-08-25T21:35:55.128Z,22.46
2022-08-25T21:40:54.584Z,22.32
2022-08-25T21:45:53.810Z,22.19
2022-08-25T21:51:06.547Z,22.07
2022-08-25T21:56:11.494Z,21.96
2022-08-25T22:01:17.116Z,21.86
2022-08-25T22:06:22.739Z,21.75
2022-08-25T22:11:22.756Z,21.60
2022-08-25T22:16:22.177Z,21.42
2022-08-25T22:21:23.987Z,21.28
2022-08-25T22:26:27.499Z,21.12
2022-08-25T22:31:27.657Z,20.99
2022-08-25T22:36:30.550Z,20.86
2022-08-25T22:41:32.115Z,20.75
2022-08-25T22:46:34.073Z,20.61
2022-08-25T22:51:38.942Z,20.49
2022-08-25T22:56:40.131Z,20.34
2022-08-25T23:01:41.133Z,20.17
2022-08-25T23:06:40.767Z,20.03
2022-08-25T23:11:42.696Z,19.92
2022-08-25T23:16:43.577Z,19.84
2022-08-25T23:22:02.315Z,19.76
2022-08-25T23:27:03.911Z,19.66
2022-08-25T23:32:02.951Z,19.57
2022-08-25T23:37:02.768Z,19.50
2022-08-25T23:42:02.146Z,19.42
2022-08-25T23:47:01.354Z,19.30
2022-08-25T23:52:00.734Z,19.18
2022-08-25T23:57:00.273Z,19.05
